Juazeiro de Baixo, Brazil
Current Conditions -  °F | °C
As of 3:00 PM on Monday 20 Oct 2014 (Local Time) from SBMS Reporting Station
Few Clouds Few Clouds  
Wind Chill: 91°   Ceiling: Unl
Heat Index: 98°   Visibility: 6mi
Dew Point: 72°   Wind: 20mph
Humidity: 52%   Direction: 20°NNE
Pressure: 29.77"   Gusts: NA
Location:  5.13°S, 38.57°W
Report Text: SBMS 201800Z 02017KT 9999 FEW030 33/22 Q1008
Loading
Personal Weather Stations






























Interactive Weather Map
Tropical Storm Tracking
New forecast layout! Learn more

10-Day Weather Forecast

Advertisements
Track Severe Weather on mobile